sensor_id;sensor_type;location;lat;lon;timestamp;P1;durP1;ratioP1;P2;durP2;ratioP2
54167;SDS011;68429;50.958;3.592;2023-09-18T00:00:42;9.13;;;5.70;;
54167;SDS011;68429;50.958;3.592;2023-09-18T00:05:36;11.38;;;5.95;;
54167;SDS011;68429;50.958;3.592;2023-09-18T00:08:02;9.10;;;5.93;;
54167;SDS011;68429;50.958;3.592;2023-09-18T00:10:28;7.22;;;5.88;;
54167;SDS011;68429;50.958;3.592;2023-09-18T00:12:55;9.43;;;6.65;;
54167;SDS011;68429;50.958;3.592;2023-09-18T00:15:22;9.13;;;5.97;;
54167;SDS011;68429;50.958;3.592;2023-09-18T00:17:48;12.38;;;6.78;;
54167;SDS011;68429;50.958;3.592;2023-09-18T00:20:14;11.25;;;6.97;;
54167;SDS011;68429;50.958;3.592;2023-09-18T00:22:42;9.23;;;5.97;;
54167;SDS011;68429;50.958;3.592;2023-09-18T00:25:08;11.73;;;6.47;;
54167;SDS011;68429;50.958;3.592;2023-09-18T00:27:33;7.05;;;6.20;;
54167;SDS011;68429;50.958;3.592;2023-09-18T00:30:01;14.50;;;5.82;;
54167;SDS011;68429;50.958;3.592;2023-09-18T00:32:28;6.90;;;6.03;;
54167;SDS011;68429;50.958;3.592;2023-09-18T00:34:54;10.20;;;6.18;;
54167;SDS011;68429;50.958;3.592;2023-09-18T00:37:19;11.20;;;5.78;;
54167;SDS011;68429;50.958;3.592;2023-09-18T00:39:45;6.88;;;6.18;;
54167;SDS011;68429;50.958;3.592;2023-09-18T00:42:10;8.43;;;5.80;;
54167;SDS011;68429;50.958;3.592;2023-09-18T00:44:39;12.73;;;6.30;;
54167;SDS011;68429;50.958;3.592;2023-09-18T00:47:07;8.02;;;5.60;;
54167;SDS011;68429;50.958;3.592;2023-09-18T00:49:33;8.20;;;5.78;;
54167;SDS011;68429;50.958;3.592;2023-09-18T00:52:01;9.55;;;5.20;;
54167;SDS011;68429;50.958;3.592;2023-09-18T00:54:28;8.15;;;5.57;;
54167;SDS011;68429;50.958;3.592;2023-09-18T00:56:54;12.15;;;5.60;;
54167;SDS011;68429;50.958;3.592;2023-09-18T00:59:20;9.02;;;5.65;;
54167;SDS011;68429;50.958;3.592;2023-09-18T01:01:46;11.07;;;5.82;;
54167;SDS011;68429;50.958;3.592;2023-09-18T01:04:16;12.50;;;5.85;;
54167;SDS011;68429;50.958;3.592;2023-09-18T01:06:42;9.90;;;5.75;;
54167;SDS011;68429;50.958;3.592;2023-09-18T01:09:08;10.57;;;5.88;;
54167;SDS011;68429;50.958;3.592;2023-09-18T01:16:57;9.13;;;5.28;;
54167;SDS011;68429;50.958;3.592;2023-09-18T01:22:05;10.63;;;5.45;;
54167;SDS011;68429;50.958;3.592;2023-09-18T01:24:32;8.95;;;5.78;;
54167;SDS011;68429;50.958;3.592;2023-09-18T01:26:59;8.43;;;5.82;;
54167;SDS011;68429;50.958;3.592;2023-09-18T01:29:24;10.40;;;6.00;;
54167;SDS011;68429;50.958;3.592;2023-09-18T01:31:50;13.13;;;6.82;;
54167;SDS011;68429;50.958;3.592;2023-09-18T01:34:18;7.35;;;6.38;;
54167;SDS011;68429;50.958;3.592;2023-09-18T01:36:46;9.95;;;5.80;;
54167;SDS011;68429;50.958;3.592;2023-09-18T01:39:13;10.75;;;5.75;;
54167;SDS011;68429;50.958;3.592;2023-09-18T01:41:40;7.28;;;5.97;;
54167;SDS011;68429;50.958;3.592;2023-09-18T01:44:06;12.35;;;5.95;;
54167;SDS011;68429;50.958;3.592;2023-09-18T01:46:32;12.35;;;5.65;;
54167;SDS011;68429;50.958;3.592;2023-09-18T01:49:02;8.02;;;5.40;;
54167;SDS011;68429;50.958;3.592;2023-09-18T01:51:28;8.32;;;5.20;;
54167;SDS011;68429;50.958;3.592;2023-09-18T01:53:57;4.93;;;4.53;;
54167;SDS011;68429;50.958;3.592;2023-09-18T01:56:23;6.78;;;4.55;;
54167;SDS011;68429;50.958;3.592;2023-09-18T01:58:49;8.63;;;5.53;;
54167;SDS011;68429;50.958;3.592;2023-09-18T02:01:15;5.57;;;4.70;;
54167;SDS011;68429;50.958;3.592;2023-09-18T02:03:40;8.13;;;4.57;;
54167;SDS011;68429;50.958;3.592;2023-09-18T02:06:06;6.85;;;5.00;;
54167;SDS011;68429;50.958;3.592;2023-09-18T02:08:35;5.93;;;4.95;;
54167;SDS011;68429;50.958;3.592;2023-09-18T02:11:01;7.03;;;4.80;;
54167;SDS011;68429;50.958;3.592;2023-09-18T02:13:28;10.15;;;6.22;;
54167;SDS011;68429;50.958;3.592;2023-09-18T02:15:54;8.15;;;4.68;;
54167;SDS011;68429;50.958;3.592;2023-09-18T02:18:20;6.88;;;5.00;;
54167;SDS011;68429;50.958;3.592;2023-09-18T02:20:46;5.43;;;4.43;;
54167;SDS011;68429;50.958;3.592;2023-09-18T02:23:14;10.90;;;5.22;;
54167;SDS011;68429;50.958;3.592;2023-09-18T02:25:40;9.07;;;5.18;;
54167;SDS011;68429;50.958;3.592;2023-09-18T02:28:06;8.30;;;4.60;;
54167;SDS011;68429;50.958;3.592;2023-09-18T02:30:32;9.82;;;5.40;;
54167;SDS011;68429;50.958;3.592;2023-09-18T02:32:58;5.78;;;4.45;;
54167;SDS011;68429;50.958;3.592;2023-09-18T02:35:24;5.32;;;4.80;;
54167;SDS011;68429;50.958;3.592;2023-09-18T02:37:50;5.63;;;4.30;;
54167;SDS011;68429;50.958;3.592;2023-09-18T02:40:17;8.82;;;4.25;;
54167;SDS011;68429;50.958;3.592;2023-09-18T02:42:42;6.47;;;4.07;;
54167;SDS011;68429;50.958;3.592;2023-09-18T02:45:09;6.70;;;3.75;;
54167;SDS011;68429;50.958;3.592;2023-09-18T02:47:34;3.63;;;3.25;;
54167;SDS011;68429;50.958;3.592;2023-09-18T02:50:02;7.38;;;3.55;;
54167;SDS011;68429;50.958;3.592;2023-09-18T02:52:30;5.68;;;3.10;;
54167;SDS011;68429;50.958;3.592;2023-09-18T02:54:56;9.15;;;3.22;;
54167;SDS011;68429;50.958;3.592;2023-09-18T02:57:22;5.55;;;3.20;;
54167;SDS011;68429;50.958;3.592;2023-09-18T02:59:47;6.60;;;3.25;;
54167;SDS011;68429;50.958;3.592;2023-09-18T03:02:13;6.10;;;3.17;;
54167;SDS011;68429;50.958;3.592;2023-09-18T03:04:39;7.32;;;3.40;;
54167;SDS011;68429;50.958;3.592;2023-09-18T03:07:05;7.65;;;3.58;;
54167;SDS011;68429;50.958;3.592;2023-09-18T03:09:30;5.60;;;3.80;;
54167;SDS011;68429;50.958;3.592;2023-09-18T03:11:56;8.13;;;3.83;;
54167;SDS011;68429;50.958;3.592;2023-09-18T03:14:22;9.35;;;4.40;;
54167;SDS011;68429;50.958;3.592;2023-09-18T03:16:47;8.73;;;4.35;;
54167;SDS011;68429;50.958;3.592;2023-09-18T03:19:13;6.45;;;4.72;;
54167;SDS011;68429;50.958;3.592;2023-09-18T03:21:39;6.30;;;4.40;;
54167;SDS011;68429;50.958;3.592;2023-09-18T03:24:04;6.25;;;4.45;;
54167;SDS011;68429;50.958;3.592;2023-09-18T03:26:30;6.80;;;4.80;;
54167;SDS011;68429;50.958;3.592;2023-09-18T03:28:56;12.77;;;4.80;;
54167;SDS011;68429;50.958;3.592;2023-09-18T03:31:22;5.70;;;4.47;;
54167;SDS011;68429;50.958;3.592;2023-09-18T03:33:47;6.82;;;4.25;;
54167;SDS011;68429;50.958;3.592;2023-09-18T03:36:13;8.82;;;3.90;;
54167;SDS011;68429;50.958;3.592;2023-09-18T03:38:39;5.60;;;4.00;;
54167;SDS011;68429;50.958;3.592;2023-09-18T03:41:05;4.47;;;3.53;;
54167;SDS011;68429;50.958;3.592;2023-09-18T03:43:31;6.97;;;3.13;;
54167;SDS011;68429;50.958;3.592;2023-09-18T03:46:03;4.70;;;3.42;;
54167;SDS011;68429;50.958;3.592;2023-09-18T03:48:29;5.88;;;3.30;;
54167;SDS011;68429;50.958;3.592;2023-09-18T03:51:01;5.43;;;3.20;;
54167;SDS011;68429;50.958;3.592;2023-09-18T03:53:27;7.38;;;2.95;;
54167;SDS011;68429;50.958;3.592;2023-09-18T03:55:52;6.35;;;3.47;;
54167;SDS011;68429;50.958;3.592;2023-09-18T03:58:18;7.78;;;3.40;;
54167;SDS011;68429;50.958;3.592;2023-09-18T04:00:45;8.23;;;3.70;;
54167;SDS011;68429;50.958;3.592;2023-09-18T04:03:11;8.43;;;3.15;;
54167;SDS011;68429;50.958;3.592;2023-09-18T04:05:36;7.82;;;2.83;;
54167;SDS011;68429;50.958;3.592;2023-09-18T04:08:02;4.30;;;2.72;;
54167;SDS011;68429;50.958;3.592;2023-09-18T04:10:28;6.40;;;3.42;;
54167;SDS011;68429;50.958;3.592;2023-09-18T04:12:53;10.77;;;3.05;;
54167;SDS011;68429;50.958;3.592;2023-09-18T04:15:19;6.55;;;3.35;;
54167;SDS011;68429;50.958;3.592;2023-09-18T04:17:45;6.00;;;2.75;;
54167;SDS011;68429;50.958;3.592;2023-09-18T04:20:11;4.78;;;2.83;;
54167;SDS011;68429;50.958;3.592;2023-09-18T04:22:41;6.47;;;3.30;;
54167;SDS011;68429;50.958;3.592;2023-09-18T04:25:09;4.20;;;2.78;;
54167;SDS011;68429;50.958;3.592;2023-09-18T04:27:35;4.60;;;2.80;;
54167;SDS011;68429;50.958;3.592;2023-09-18T04:30:01;4.07;;;2.67;;
54167;SDS011;68429;50.958;3.592;2023-09-18T04:32:27;10.45;;;3.30;;
54167;SDS011;68429;50.958;3.592;2023-09-18T04:34:54;5.07;;;2.92;;
54167;SDS011;68429;50.958;3.592;2023-09-18T04:37:20;6.20;;;2.90;;
54167;SDS011;68429;50.958;3.592;2023-09-18T04:39:45;5.80;;;2.70;;
54167;SDS011;68429;50.958;3.592;2023-09-18T04:42:11;8.68;;;2.80;;
54167;SDS011;68429;50.958;3.592;2023-09-18T04:44:37;5.57;;;2.50;;
54167;SDS011;68429;50.958;3.592;2023-09-18T04:47:02;3.20;;;2.33;;
54167;SDS011;68429;50.958;3.592;2023-09-18T04:49:28;6.68;;;2.80;;
54167;SDS011;68429;50.958;3.592;2023-09-18T04:51:54;3.70;;;2.40;;
54167;SDS011;68429;50.958;3.592;2023-09-18T04:54:20;8.13;;;2.72;;
54167;SDS011;68429;50.958;3.592;2023-09-18T04:56:46;4.72;;;2.78;;
54167;SDS011;68429;50.958;3.592;2023-09-18T04:59:11;5.88;;;2.72;;
54167;SDS011;68429;50.958;3.592;2023-09-18T05:01:37;3.72;;;2.47;;
54167;SDS011;68429;50.958;3.592;2023-09-18T05:04:03;3.95;;;2.58;;
54167;SDS011;68429;50.958;3.592;2023-09-18T05:06:28;6.30;;;2.42;;
54167;SDS011;68429;50.958;3.592;2023-09-18T05:08:54;4.78;;;2.58;;
54167;SDS011;68429;50.958;3.592;2023-09-18T05:11:20;6.85;;;2.72;;
54167;SDS011;68429;50.958;3.592;2023-09-18T05:13:46;7.25;;;3.13;;
54167;SDS011;68429;50.958;3.592;2023-09-18T05:16:12;4.18;;;2.83;;
54167;SDS011;68429;50.958;3.592;2023-09-18T05:18:38;4.75;;;2.55;;
54167;SDS011;68429;50.958;3.592;2023-09-18T05:21:04;3.95;;;2.60;;
54167;SDS011;68429;50.958;3.592;2023-09-18T05:23:30;7.30;;;2.65;;
54167;SDS011;68429;50.958;3.592;2023-09-18T05:25:55;7.82;;;2.63;;
54167;SDS011;68429;50.958;3.592;2023-09-18T05:28:21;9.57;;;2.97;;
54167;SDS011;68429;50.958;3.592;2023-09-18T05:30:47;4.18;;;2.47;;
54167;SDS011;68429;50.958;3.592;2023-09-18T05:33:12;4.28;;;2.97;;
54167;SDS011;68429;50.958;3.592;2023-09-18T05:35:42;4.70;;;2.42;;
54167;SDS011;68429;50.958;3.592;2023-09-18T05:38:10;6.32;;;2.67;;
54167;SDS011;68429;50.958;3.592;2023-09-18T05:40:38;4.82;;;2.47;;
54167;SDS011;68429;50.958;3.592;2023-09-18T05:43:04;5.75;;;3.05;;
54167;SDS011;68429;50.958;3.592;2023-09-18T05:45:30;3.63;;;2.90;;
54167;SDS011;68429;50.958;3.592;2023-09-18T05:47:57;4.85;;;2.50;;
54167;SDS011;68429;50.958;3.592;2023-09-18T05:50:27;4.97;;;2.80;;
54167;SDS011;68429;50.958;3.592;2023-09-18T05:52:55;3.88;;;2.50;;
54167;SDS011;68429;50.958;3.592;2023-09-18T05:57:50;6.43;;;3.28;;
54167;SDS011;68429;50.958;3.592;2023-09-18T06:00:16;8.95;;;2.85;;
54167;SDS011;68429;50.958;3.592;2023-09-18T06:02:43;6.57;;;3.08;;
54167;SDS011;68429;50.958;3.592;2023-09-18T06:05:09;7.35;;;2.78;;
54167;SDS011;68429;50.958;3.592;2023-09-18T06:07:36;8.40;;;2.50;;
54167;SDS011;68429;50.958;3.592;2023-09-18T06:10:02;5.40;;;2.75;;
54167;SDS011;68429;50.958;3.592;2023-09-18T06:12:28;7.57;;;3.20;;
54167;SDS011;68429;50.958;3.592;2023-09-18T06:14:54;6.13;;;2.60;;
54167;SDS011;68429;50.958;3.592;2023-09-18T06:17:20;5.70;;;2.60;;
54167;SDS011;68429;50.958;3.592;2023-09-18T06:19:45;4.68;;;2.90;;
54167;SDS011;68429;50.958;3.592;2023-09-18T06:22:11;7.07;;;2.80;;
54167;SDS011;68429;50.958;3.592;2023-09-18T06:24:37;5.88;;;3.13;;
54167;SDS011;68429;50.958;3.592;2023-09-18T06:27:03;4.10;;;3.00;;
54167;SDS011;68429;50.958;3.592;2023-09-18T06:29:29;7.63;;;3.30;;
54167;SDS011;68429;50.958;3.592;2023-09-18T06:31:56;7.45;;;3.50;;
54167;SDS011;68429;50.958;3.592;2023-09-18T06:34:21;7.03;;;3.40;;
54167;SDS011;68429;50.958;3.592;2023-09-18T06:36:47;8.23;;;3.38;;
54167;SDS011;68429;50.958;3.592;2023-09-18T06:39:13;5.47;;;3.05;;
54167;SDS011;68429;50.958;3.592;2023-09-18T06:41:39;8.35;;;3.20;;
54167;SDS011;68429;50.958;3.592;2023-09-18T06:44:05;5.32;;;3.00;;
54167;SDS011;68429;50.958;3.592;2023-09-18T06:46:30;6.95;;;2.80;;
54167;SDS011;68429;50.958;3.592;2023-09-18T06:48:56;5.68;;;3.17;;
54167;SDS011;68429;50.958;3.592;2023-09-18T06:51:25;6.93;;;3.03;;
54167;SDS011;68429;50.958;3.592;2023-09-18T06:53:52;4.05;;;3.15;;
54167;SDS011;68429;50.958;3.592;2023-09-18T06:56:18;5.70;;;2.97;;
54167;SDS011;68429;50.958;3.592;2023-09-18T06:58:44;8.63;;;3.53;;
54167;SDS011;68429;50.958;3.592;2023-09-18T07:01:12;9.32;;;3.50;;
54167;SDS011;68429;50.958;3.592;2023-09-18T07:03:40;11.00;;;3.90;;
54167;SDS011;68429;50.958;3.592;2023-09-18T07:06:06;4.45;;;3.75;;
54167;SDS011;68429;50.958;3.592;2023-09-18T07:08:31;8.57;;;4.10;;
54167;SDS011;68429;50.958;3.592;2023-09-18T07:10:58;6.95;;;3.70;;
54167;SDS011;68429;50.958;3.592;2023-09-18T07:13:24;9.35;;;3.95;;
54167;SDS011;68429;50.958;3.592;2023-09-18T07:15:49;10.55;;;3.85;;
54167;SDS011;68429;50.958;3.592;2023-09-18T07:18:15;9.70;;;3.78;;
54167;SDS011;68429;50.958;3.592;2023-09-18T07:20:41;6.00;;;3.17;;
54167;SDS011;68429;50.958;3.592;2023-09-18T07:23:08;7.10;;;3.30;;
54167;SDS011;68429;50.958;3.592;2023-09-18T07:25:34;7.72;;;3.55;;
54167;SDS011;68429;50.958;3.592;2023-09-18T07:28:03;5.57;;;3.50;;
54167;SDS011;68429;50.958;3.592;2023-09-18T07:30:30;7.55;;;3.22;;
54167;SDS011;68429;50.958;3.592;2023-09-18T07:32:56;11.02;;;3.70;;
54167;SDS011;68429;50.958;3.592;2023-09-18T07:35:23;6.22;;;3.63;;
54167;SDS011;68429;50.958;3.592;2023-09-18T07:40:17;4.88;;;3.28;;
54167;SDS011;68429;50.958;3.592;2023-09-18T07:42:43;6.07;;;3.45;;
54167;SDS011;68429;50.958;3.592;2023-09-18T07:45:09;7.90;;;3.80;;
54167;SDS011;68429;50.958;3.592;2023-09-18T07:47:36;5.88;;;3.47;;
54167;SDS011;68429;50.958;3.592;2023-09-18T07:50:01;7.00;;;3.85;;
54167;SDS011;68429;50.958;3.592;2023-09-18T07:52:27;7.13;;;3.70;;
54167;SDS011;68429;50.958;3.592;2023-09-18T07:54:54;4.95;;;3.60;;
54167;SDS011;68429;50.958;3.592;2023-09-18T07:57:20;4.97;;;3.75;;
54167;SDS011;68429;50.958;3.592;2023-09-18T07:59:47;8.82;;;3.72;;
54167;SDS011;68429;50.958;3.592;2023-09-18T08:02:13;7.95;;;4.22;;
54167;SDS011;68429;50.958;3.592;2023-09-18T08:04:39;8.05;;;3.33;;
54167;SDS011;68429;50.958;3.592;2023-09-18T08:07:05;8.98;;;3.65;;
54167;SDS011;68429;50.958;3.592;2023-09-18T08:09:32;7.47;;;3.70;;
54167;SDS011;68429;50.958;3.592;2023-09-18T08:14:27;6.07;;;3.53;;
54167;SDS011;68429;50.958;3.592;2023-09-18T08:16:56;7.57;;;3.17;;
54167;SDS011;68429;50.958;3.592;2023-09-18T08:19:23;10.35;;;3.90;;
54167;SDS011;68429;50.958;3.592;2023-09-18T08:21:51;8.23;;;4.28;;
54167;SDS011;68429;50.958;3.592;2023-09-18T08:24:18;7.78;;;4.07;;
54167;SDS011;68429;50.958;3.592;2023-09-18T08:26:44;9.23;;;3.70;;
54167;SDS011;68429;50.958;3.592;2023-09-18T08:29:10;5.47;;;3.25;;
54167;SDS011;68429;50.958;3.592;2023-09-18T08:31:35;6.43;;;4.10;;
54167;SDS011;68429;50.958;3.592;2023-09-18T08:34:01;6.80;;;4.00;;
54167;SDS011;68429;50.958;3.592;2023-09-18T08:36:26;4.25;;;3.30;;
54167;SDS011;68429;50.958;3.592;2023-09-18T08:38:55;7.05;;;3.08;;
54167;SDS011;68429;50.958;3.592;2023-09-18T08:41:21;11.70;;;4.35;;
54167;SDS011;68429;50.958;3.592;2023-09-18T08:43:51;6.22;;;3.40;;
54167;SDS011;68429;50.958;3.592;2023-09-18T08:48:46;8.13;;;3.17;;
54167;SDS011;68429;50.958;3.592;2023-09-18T08:51:15;6.45;;;3.05;;
54167;SDS011;68429;50.958;3.592;2023-09-18T08:53:43;6.20;;;3.05;;
54167;SDS011;68429;50.958;3.592;2023-09-18T08:56:09;5.43;;;3.30;;
54167;SDS011;68429;50.958;3.592;2023-09-18T08:58:36;7.15;;;2.97;;
54167;SDS011;68429;50.958;3.592;2023-09-18T09:01:07;6.15;;;2.85;;
54167;SDS011;68429;50.958;3.592;2023-09-18T09:03:39;7.57;;;3.28;;
54167;SDS011;68429;50.958;3.592;2023-09-18T09:06:06;4.85;;;3.00;;
54167;SDS011;68429;50.958;3.592;2023-09-18T09:08:33;8.52;;;3.65;;
54167;SDS011;68429;50.958;3.592;2023-09-18T09:10:59;6.10;;;3.42;;
54167;SDS011;68429;50.958;3.592;2023-09-18T09:13:25;6.50;;;3.15;;
54167;SDS011;68429;50.958;3.592;2023-09-18T09:15:52;7.15;;;3.33;;
54167;SDS011;68429;50.958;3.592;2023-09-18T09:18:21;8.88;;;3.33;;
54167;SDS011;68429;50.958;3.592;2023-09-18T09:23:45;6.07;;;3.50;;
54167;SDS011;68429;50.958;3.592;2023-09-18T09:26:15;8.15;;;3.22;;
54167;SDS011;68429;50.958;3.592;2023-09-18T09:28:42;6.80;;;3.30;;
54167;SDS011;68429;50.958;3.592;2023-09-18T09:31:09;7.90;;;3.53;;
54167;SDS011;68429;50.958;3.592;2023-09-18T09:33:35;6.32;;;3.45;;
54167;SDS011;68429;50.958;3.592;2023-09-18T09:36:04;8.68;;;3.85;;
54167;SDS011;68429;50.958;3.592;2023-09-18T09:38:30;9.32;;;2.95;;
54167;SDS011;68429;50.958;3.592;2023-09-18T09:40:59;6.88;;;3.60;;
54167;SDS011;68429;50.958;3.592;2023-09-18T09:43:29;7.40;;;3.03;;
54167;SDS011;68429;50.958;3.592;2023-09-18T09:45:58;5.88;;;2.92;;
54167;SDS011;68429;50.958;3.592;2023-09-18T09:48:24;11.02;;;3.22;;
54167;SDS011;68429;50.958;3.592;2023-09-18T09:50:50;4.05;;;2.88;;
54167;SDS011;68429;50.958;3.592;2023-09-18T09:53:18;8.15;;;2.80;;
54167;SDS011;68429;50.958;3.592;2023-09-18T09:55:44;6.50;;;2.85;;
54167;SDS011;68429;50.958;3.592;2023-09-18T09:58:10;7.18;;;3.08;;
54167;SDS011;68429;50.958;3.592;2023-09-18T10:00:49;8.10;;;2.40;;
54167;SDS011;68429;50.958;3.592;2023-09-18T10:03:19;5.85;;;2.80;;
54167;SDS011;68429;50.958;3.592;2023-09-18T10:05:46;4.47;;;2.22;;
54167;SDS011;68429;50.958;3.592;2023-09-18T10:10:48;9.18;;;2.95;;
54167;SDS011;68429;50.958;3.592;2023-09-18T10:13:16;6.43;;;2.60;;
54167;SDS011;68429;50.958;3.592;2023-09-18T10:15:52;5.93;;;2.60;;
54167;SDS011;68429;50.958;3.592;2023-09-18T10:18:28;4.55;;;2.25;;
54167;SDS011;68429;50.958;3.592;2023-09-18T10:21:06;5.97;;;2.30;;
54167;SDS011;68429;50.958;3.592;2023-09-18T10:26:39;4.72;;;2.70;;
54167;SDS011;68429;50.958;3.592;2023-09-18T10:29:14;7.38;;;2.72;;
54167;SDS011;68429;50.958;3.592;2023-09-18T10:31:40;5.90;;;2.80;;
54167;SDS011;68429;50.958;3.592;2023-09-18T10:34:08;7.47;;;2.67;;
54167;SDS011;68429;50.958;3.592;2023-09-18T10:36:36;4.22;;;2.50;;
54167;SDS011;68429;50.958;3.592;2023-09-18T10:39:04;5.15;;;2.42;;
54167;SDS011;68429;50.958;3.592;2023-09-18T10:41:35;5.43;;;2.08;;
54167;SDS011;68429;50.958;3.592;2023-09-18T10:44:02;4.57;;;1.90;;
54167;SDS011;68429;50.958;3.592;2023-09-18T10:46:29;5.70;;;2.15;;
54167;SDS011;68429;50.958;3.592;2023-09-18T10:48:56;4.65;;;1.98;;
54167;SDS011;68429;50.958;3.592;2023-09-18T10:51:24;4.88;;;1.60;;
54167;SDS011;68429;50.958;3.592;2023-09-18T10:53:50;6.05;;;1.70;;
54167;SDS011;68429;50.958;3.592;2023-09-18T10:56:20;6.70;;;1.98;;
54167;SDS011;68429;50.958;3.592;2023-09-18T10:58:45;3.58;;;1.77;;
54167;SDS011;68429;50.958;3.592;2023-09-18T11:01:12;3.47;;;1.88;;
54167;SDS011;68429;50.958;3.592;2023-09-18T11:03:38;2.38;;;1.63;;
54167;SDS011;68429;50.958;3.592;2023-09-18T11:06:08;3.22;;;1.70;;
54167;SDS011;68429;50.958;3.592;2023-09-18T11:08:48;4.22;;;1.95;;
54167;SDS011;68429;50.958;3.592;2023-09-18T11:11:17;3.63;;;1.77;;
54167;SDS011;68429;50.958;3.592;2023-09-18T11:13:50;2.80;;;1.50;;
54167;SDS011;68429;50.958;3.592;2023-09-18T11:18:52;4.95;;;1.73;;
54167;SDS011;68429;50.958;3.592;2023-09-18T11:21:29;3.65;;;1.95;;
54167;SDS011;68429;50.958;3.592;2023-09-18T11:23:59;1.90;;;1.35;;
54167;SDS011;68429;50.958;3.592;2023-09-18T11:26:31;2.67;;;1.67;;
54167;SDS011;68429;50.958;3.592;2023-09-18T11:29:06;4.82;;;1.52;;
54167;SDS011;68429;50.958;3.592;2023-09-18T11:31:44;7.15;;;2.08;;
54167;SDS011;68429;50.958;3.592;2023-09-18T11:34:11;3.35;;;1.60;;
54167;SDS011;68429;50.958;3.592;2023-09-18T11:36:40;3.58;;;1.75;;
54167;SDS011;68429;50.958;3.592;2023-09-18T11:39:07;5.35;;;1.55;;
54167;SDS011;68429;50.958;3.592;2023-09-18T11:41:34;2.55;;;1.42;;
54167;SDS011;68429;50.958;3.592;2023-09-18T11:46:36;4.10;;;1.42;;
54167;SDS011;68429;50.958;3.592;2023-09-18T11:49:04;3.22;;;1.20;;
54167;SDS011;68429;50.958;3.592;2023-09-18T11:51:37;3.33;;;1.65;;
54167;SDS011;68429;50.958;3.592;2023-09-18T11:54:03;5.68;;;1.88;;
54167;SDS011;68429;50.958;3.592;2023-09-18T11:56:32;4.15;;;1.70;;
54167;SDS011;68429;50.958;3.592;2023-09-18T11:58:58;12.82;;;1.80;;
54167;SDS011;68429;50.958;3.592;2023-09-18T12:01:24;3.47;;;1.35;;
54167;SDS011;68429;50.958;3.592;2023-09-18T12:03:55;3.95;;;1.55;;
54167;SDS011;68429;50.958;3.592;2023-09-18T12:06:26;3.80;;;1.50;;
54167;SDS011;68429;50.958;3.592;2023-09-18T12:08:52;4.00;;;1.50;;
54167;SDS011;68429;50.958;3.592;2023-09-18T12:11:18;4.20;;;1.35;;
54167;SDS011;68429;50.958;3.592;2023-09-18T12:13:46;4.25;;;1.60;;
54167;SDS011;68429;50.958;3.592;2023-09-18T12:16:13;2.83;;;1.27;;
54167;SDS011;68429;50.958;3.592;2023-09-18T12:18:44;7.15;;;1.58;;
54167;SDS011;68429;50.958;3.592;2023-09-18T12:21:14;6.20;;;1.85;;
54167;SDS011;68429;50.958;3.592;2023-09-18T12:23:42;2.25;;;1.30;;
54167;SDS011;68429;50.958;3.592;2023-09-18T12:26:13;6.07;;;1.85;;
54167;SDS011;68429;50.958;3.592;2023-09-18T12:28:41;4.78;;;1.50;;
54167;SDS011;68429;50.958;3.592;2023-09-18T12:31:10;2.95;;;1.67;;
54167;SDS011;68429;50.958;3.592;2023-09-18T12:33:39;4.93;;;1.83;;
54167;SDS011;68429;50.958;3.592;2023-09-18T12:36:07;4.78;;;1.40;;
54167;SDS011;68429;50.958;3.592;2023-09-18T12:38:33;4.95;;;1.77;;
54167;SDS011;68429;50.958;3.592;2023-09-18T12:40:59;2.85;;;1.50;;
54167;SDS011;68429;50.958;3.592;2023-09-18T12:43:38;4.93;;;1.50;;
54167;SDS011;68429;50.958;3.592;2023-09-18T12:46:05;3.40;;;1.70;;
54167;SDS011;68429;50.958;3.592;2023-09-18T12:48:32;3.50;;;1.45;;
54167;SDS011;68429;50.958;3.592;2023-09-18T12:51:05;2.45;;;1.30;;
54167;SDS011;68429;50.958;3.592;2023-09-18T12:53:30;7.15;;;1.40;;
54167;SDS011;68429;50.958;3.592;2023-09-18T12:56:13;2.55;;;1.33;;
54167;SDS011;68429;50.958;3.592;2023-09-18T12:58:42;2.60;;;1.40;;
54167;SDS011;68429;50.958;3.592;2023-09-18T13:01:09;3.50;;;1.25;;
54167;SDS011;68429;50.958;3.592;2023-09-18T13:03:46;3.10;;;1.43;;
54167;SDS011;68429;50.958;3.592;2023-09-18T13:06:18;3.33;;;1.80;;
54167;SDS011;68429;50.958;3.592;2023-09-18T13:08:45;2.47;;;1.30;;
54167;SDS011;68429;50.958;3.592;2023-09-18T13:11:11;2.65;;;1.63;;
54167;SDS011;68429;50.958;3.592;2023-09-18T13:13:39;19.80;;;3.47;;
54167;SDS011;68429;50.958;3.592;2023-09-18T13:16:06;0.10;;;0.10;;
54167;SDS011;68429;50.958;3.592;2023-09-18T13:18:34;0.00;;;0.00;;
54167;SDS011;68429;50.958;3.592;2023-09-18T13:21:00;0.00;;;0.00;;
54167;SDS011;68429;50.958;3.592;2023-09-18T13:23:33;0.10;;;0.10;;
54167;SDS011;68429;50.958;3.592;2023-09-18T13:26:01;0.00;;;0.00;;
54167;SDS011;68429;50.958;3.592;2023-09-18T13:28:28;0.10;;;0.10;;
54167;SDS011;68429;50.958;3.592;2023-09-18T13:30:56;0.10;;;0.10;;
54167;SDS011;68429;50.958;3.592;2023-09-18T13:33:24;1.25;;;0.43;;
54167;SDS011;68429;50.958;3.592;2023-09-18T13:35:51;2.67;;;0.85;;
54167;SDS011;68429;50.958;3.592;2023-09-18T13:38:18;0.00;;;0.00;;
54167;SDS011;68429;50.958;3.592;2023-09-18T13:40:45;0.00;;;0.00;;
54167;SDS011;68429;50.958;3.592;2023-09-18T13:43:12;0.00;;;0.00;;
54167;SDS011;68429;50.958;3.592;2023-09-18T13:45:43;1.15;;;0.68;;
54167;SDS011;68429;50.958;3.592;2023-09-18T13:48:09;0.10;;;0.10;;
54167;SDS011;68429;50.958;3.592;2023-09-18T13:50:36;0.00;;;0.00;;
54167;SDS011;68429;50.958;3.592;2023-09-18T13:53:03;0.00;;;0.00;;
54167;SDS011;68429;50.958;3.592;2023-09-18T13:55:31;6.70;;;2.83;;
54167;SDS011;68429;50.958;3.592;2023-09-18T13:57:57;5.00;;;2.55;;
54167;SDS011;68429;50.958;3.592;2023-09-18T14:00:23;5.57;;;2.05;;
54167;SDS011;68429;50.958;3.592;2023-09-18T14:02:50;5.40;;;2.17;;
54167;SDS011;68429;50.958;3.592;2023-09-18T14:05:16;6.63;;;2.30;;
54167;SDS011;68429;50.958;3.592;2023-09-18T14:07:41;4.75;;;2.10;;
54167;SDS011;68429;50.958;3.592;2023-09-18T14:10:07;2.83;;;1.80;;
54167;SDS011;68429;50.958;3.592;2023-09-18T14:12:35;3.80;;;2.00;;
54167;SDS011;68429;50.958;3.592;2023-09-18T14:15:03;5.20;;;2.03;;
54167;SDS011;68429;50.958;3.592;2023-09-18T14:17:33;2.90;;;1.67;;
54167;SDS011;68429;50.958;3.592;2023-09-18T14:19:59;6.30;;;1.92;;
54167;SDS011;68429;50.958;3.592;2023-09-18T14:22:26;2.40;;;1.35;;
54167;SDS011;68429;50.958;3.592;2023-09-18T14:24:51;4.55;;;1.60;;
54167;SDS011;68429;50.958;3.592;2023-09-18T14:27:17;4.47;;;2.00;;
54167;SDS011;68429;50.958;3.592;2023-09-18T14:29:43;5.63;;;1.40;;
54167;SDS011;68429;50.958;3.592;2023-09-18T14:32:08;6.72;;;2.03;;
54167;SDS011;68429;50.958;3.592;2023-09-18T14:34:34;8.13;;;1.95;;
54167;SDS011;68429;50.958;3.592;2023-09-18T14:37:04;5.25;;;1.60;;
54167;SDS011;68429;50.958;3.592;2023-09-18T14:39:33;6.90;;;1.60;;
54167;SDS011;68429;50.958;3.592;2023-09-18T14:41:59;2.15;;;1.30;;
54167;SDS011;68429;50.958;3.592;2023-09-18T14:44:25;3.28;;;1.35;;
54167;SDS011;68429;50.958;3.592;2023-09-18T14:46:52;3.50;;;1.55;;
54167;SDS011;68429;50.958;3.592;2023-09-18T14:49:19;3.63;;;1.50;;
54167;SDS011;68429;50.958;3.592;2023-09-18T14:51:45;1.80;;;1.42;;
54167;SDS011;68429;50.958;3.592;2023-09-18T14:54:11;6.63;;;1.45;;
54167;SDS011;68429;50.958;3.592;2023-09-18T14:56:36;3.28;;;1.52;;
54167;SDS011;68429;50.958;3.592;2023-09-18T14:59:02;6.22;;;1.38;;
54167;SDS011;68429;50.958;3.592;2023-09-18T15:01:32;3.80;;;1.23;;
54167;SDS011;68429;50.958;3.592;2023-09-18T15:03:58;4.05;;;1.23;;
54167;SDS011;68429;50.958;3.592;2023-09-18T15:06:24;4.13;;;1.30;;
54167;SDS011;68429;50.958;3.592;2023-09-18T15:08:51;2.85;;;1.23;;
54167;SDS011;68429;50.958;3.592;2023-09-18T15:11:16;5.82;;;1.75;;
54167;SDS011;68429;50.958;3.592;2023-09-18T15:13:42;3.60;;;1.45;;
54167;SDS011;68429;50.958;3.592;2023-09-18T15:16:08;5.78;;;1.65;;
54167;SDS011;68429;50.958;3.592;2023-09-18T15:18:34;8.88;;;1.73;;